Time;durP1;ratioP1;P1;durP2;ratioP2;P2;SDS_P1;SDS_P2;PMS_P1;PMS_P2;Temp;Humidity;BMP_temperature;BMP_pressure;BME280_temperature;BME280_humidity;BME280_pressure;Samples;Min_cycle;Max_cycle;Signal;HPM_P1;HPM_P2
2024/01/11 00:02:26;;;;;;;;;;;-1.90;97.10;;;;;;5101635;28;19931;-76
2024/01/11 00:04:53;;;;;;;;;;;-1.90;97.20;;;;;;5097267;28;19924;-77
2024/01/11 00:07:19;;;;;;;;;;;-1.90;97.20;;;;;;5094249;28;19924;-77
2024/01/11 00:09:46;;;;;;;;;;;-1.90;97.20;;;;;;5100944;28;19923;-77
2024/01/11 00:12:12;;;;;;;;;;;-1.90;97.20;;;;;;5099926;28;19933;-77
2024/01/11 00:14:40;;;;;;;;;;;-1.90;97.20;;;;;;5099212;28;19924;-77
2024/01/11 00:17:06;;;;;;;;;;;-2.00;97.20;;;;;;5098872;28;19923;-77
2024/01/11 00:19:34;;;;;;;;;;;-2.00;97.20;;;;;;5099920;28;20455;-77
2024/01/11 00:22:01;;;;;;;;;;;-2.00;97.20;;;;;;5102102;28;20279;-77
2024/01/11 00:24:28;;;;;;;;;;;-2.00;97.20;;;;;;5100082;28;20517;-77
2024/01/11 00:26:55;;;;;;;;;;;-2.00;97.30;;;;;;5102257;28;19930;-77
2024/01/11 00:29:21;;;;;;;;;;;-2.00;97.30;;;;;;5099790;28;19923;-77
2024/01/11 00:31:48;;;;;;;;;;;-2.00;97.30;;;;;;5075073;28;20034;-77
2024/01/11 00:34:15;;;;;;;;;;;-2.00;97.30;;;;;;5065822;28;20019;-77
2024/01/11 00:36:44;;;;;;;;;;;-2.10;97.30;;;;;;5100694;28;19924;-77
2024/01/11 00:39:11;;;;;;;;;;;-2.00;97.30;;;;;;5100736;28;19924;-77
2024/01/11 00:41:38;;;;;;;;;;;-2.10;97.30;;;;;;5098206;28;19934;-77
2024/01/11 00:44:05;;;;;;;;;;;-2.10;97.30;;;;;;5084585;28;20018;-77
2024/01/11 00:46:32;;;;;;;;;;;-2.10;97.30;;;;;;5101748;28;20303;-77
2024/01/11 00:48:58;;;;;;;;;;;-2.10;97.30;;;;;;5100697;28;19927;-77
2024/01/11 00:51:25;;;;;;;;;;;-2.20;97.30;;;;;;5100465;28;20652;-77
2024/01/11 00:53:53;;;;;;;;;;;-2.20;97.40;;;;;;5100351;28;20426;-77
2024/01/11 00:56:20;;;;;;;;;;;-2.20;97.40;;;;;;5101987;28;19927;-77
2024/01/11 00:58:46;;;;;;;;;;;-2.20;97.40;;;;;;5097909;28;19927;-77
2024/01/11 01:01:13;;;;;;;;;;;-2.20;97.40;;;;;;5098324;28;19931;-77
2024/01/11 01:03:40;;;;;;;;;;;-2.20;97.40;;;;;;5098653;28;19953;-77
2024/01/11 01:06:06;;;;;;;;;;;-2.20;97.40;;;;;;5098144;28;19924;-77
2024/01/11 01:08:33;;;;;;;;;;;-2.20;97.50;;;;;;5099499;28;19923;-77
2024/01/11 01:11:01;;;;;;;;;;;-2.20;97.50;;;;;;5101488;28;19923;-76
2024/01/11 01:13:27;;;;;;;;;;;-2.30;97.40;;;;;;5096559;28;19927;-77
2024/01/11 01:15:54;;;;;;;;;;;-2.30;97.50;;;;;;5099881;28;19931;-77
2024/01/11 01:18:21;;;;;;;;;;;-2.30;97.50;;;;;;5098515;28;20497;-77
2024/01/11 01:20:47;;;;;;;;;;;-2.30;97.50;;;;;;5082730;28;20254;-77
2024/01/11 01:23:14;;;;;;;;;;;-2.30;97.50;;;;;;5096406;28;19923;-77
2024/01/11 01:25:41;;;;;;;;;;;-2.30;97.60;;;;;;5098371;28;19976;-77
2024/01/11 01:28:08;;;;;;;;;;;-2.40;97.50;;;;;;5094454;28;20339;-76
2024/01/11 01:30:35;;;;;;;;;;;-2.40;97.50;;;;;;5096814;28;19927;-75
2024/01/11 01:33:02;;;;;;;;;;;-2.40;97.50;;;;;;5100464;28;19931;-76
2024/01/11 01:35:28;;;;;;;;;;;-2.40;97.60;;;;;;5079001;28;20023;-76
2024/01/11 01:37:55;;;;;;;;;;;-2.40;97.60;;;;;;5098966;28;19966;-76
2024/01/11 01:40:22;;;;;;;;;;;-2.40;97.60;;;;;;5096126;28;19923;-76
2024/01/11 01:42:49;;;;;;;;;;;-2.40;97.60;;;;;;5078002;28;19931;-76
2024/01/11 01:45:17;;;;;;;;;;;-2.40;97.90;;;;;;5102433;28;19931;-76
2024/01/11 01:47:44;;;;;;;;;;;-2.50;97.60;;;;;;5101541;28;20018;-75
2024/01/11 01:50:11;;;;;;;;;;;-2.40;97.60;;;;;;5099896;28;19930;-76
2024/01/11 01:52:39;;;;;;;;;;;-2.50;97.60;;;;;;5101716;28;20173;-76
2024/01/11 01:55:07;;;;;;;;;;;-2.50;97.60;;;;;;5103857;28;19923;-76
2024/01/11 01:57:35;;;;;;;;;;;-2.50;97.60;;;;;;5102121;28;19927;-77
2024/01/11 02:00:02;;;;;;;;;;;-2.50;97.60;;;;;;5101874;27;19927;-76
2024/01/11 02:02:31;;;;;;;;;;;-2.50;97.70;;;;;;5100485;28;19931;-77
2024/01/11 02:04:58;;;;;;;;;;;-2.50;97.70;;;;;;5102135;28;19920;-76
2024/01/11 02:07:25;;;;;;;;;;;-2.50;97.70;;;;;;5102032;27;19923;-76
2024/01/11 02:09:52;;;;;;;;;;;-2.60;97.60;;;;;;5101856;28;19928;-76
2024/01/11 02:12:19;;;;;;;;;;;-2.60;97.70;;;;;;5102030;28;19950;-76
2024/01/11 02:14:46;;;;;;;;;;;-2.60;97.70;;;;;;5103181;28;20813;-77
2024/01/11 02:17:12;;;;;;;;;;;-2.60;97.70;;;;;;5078776;28;19979;-76
2024/01/11 02:19:41;;;;;;;;;;;-2.60;97.70;;;;;;5097985;28;20549;-76
2024/01/11 02:22:13;;;;;;;;;;;-2.60;97.50;;;;;;5098551;27;19924;-76
2024/01/11 02:24:41;;;;;;;;;;;-2.60;97.70;;;;;;5104588;28;20407;-77
2024/01/11 02:27:09;;;;;;;;;;;-2.70;97.70;;;;;;5102368;28;19935;-76
2024/01/11 02:29:36;;;;;;;;;;;-2.70;97.80;;;;;;5101904;27;20376;-77
2024/01/11 02:32:03;;;;;;;;;;;-2.60;97.80;;;;;;5101208;27;19931;-76
2024/01/11 02:34:30;;;;;;;;;;;-2.70;97.80;;;;;;5100641;28;19934;-76
2024/01/11 02:36:56;;;;;;;;;;;-2.70;97.80;;;;;;5098798;28;20412;-76
2024/01/11 02:39:24;;;;;;;;;;;-2.70;97.80;;;;;;5100077;28;19930;-76
2024/01/11 02:41:52;;;;;;;;;;;-2.70;97.80;;;;;;5101939;28;19923;-77
2024/01/11 02:44:18;;;;;;;;;;;-2.70;97.80;;;;;;5103757;27;19980;-76
2024/01/11 02:46:45;;;;;;;;;;;-2.70;97.80;;;;;;5100720;28;19931;-75
2024/01/11 02:49:12;;;;;;;;;;;-2.80;97.80;;;;;;5097629;28;20451;-76
2024/01/11 02:51:39;;;;;;;;;;;-2.70;97.90;;;;;;5098123;27;19923;-76
2024/01/11 02:54:06;;;;;;;;;;;-2.80;97.90;;;;;;5099079;28;19928;-76
2024/01/11 02:56:33;;;;;;;;;;;-2.80;97.90;;;;;;5098569;28;19930;-76
2024/01/11 02:59:01;;;;;;;;;;;-2.80;97.90;;;;;;5098395;28;20018;-76
2024/01/11 03:01:27;;;;;;;;;;;-2.80;97.90;;;;;;5101192;28;19923;-75
2024/01/11 03:03:55;;;;;;;;;;;-2.80;98.00;;;;;;5084855;28;20020;-77
2024/01/11 03:06:22;;;;;;;;;;;-2.80;97.90;;;;;;5098194;28;19931;-77
2024/01/11 03:08:49;;;;;;;;;;;-2.80;97.90;;;;;;5100663;28;19928;-77
2024/01/11 03:11:16;;;;;;;;;;;-2.80;98.00;;;;;;5098410;28;19955;-77
2024/01/11 03:13:42;;;;;;;;;;;-2.80;98.00;;;;;;5099755;28;20367;-77
2024/01/11 03:16:10;;;;;;;;;;;-2.90;97.90;;;;;;5099202;28;19960;-76
2024/01/11 03:18:37;;;;;;;;;;;-2.90;97.90;;;;;;5100591;28;19928;-77
2024/01/11 03:21:04;;;;;;;;;;;-2.90;97.90;;;;;;5078525;28;20397;-76
2024/01/11 03:23:31;;;;;;;;;;;-2.90;98.00;;;;;;5100529;28;19923;-76
2024/01/11 03:25:57;;;;;;;;;;;-2.90;98.00;;;;;;5101378;28;20552;-76
2024/01/11 03:28:24;;;;;;;;;;;-2.90;98.00;;;;;;5098351;28;20520;-76
2024/01/11 03:30:51;;;;;;;;;;;-2.90;98.00;;;;;;5098209;28;20679;-76
2024/01/11 03:33:19;;;;;;;;;;;-2.90;98.00;;;;;;5080413;28;19934;-77
2024/01/11 03:35:46;;;;;;;;;;;-2.90;98.00;;;;;;5097711;28;20595;-76
2024/01/11 03:38:13;;;;;;;;;;;-3.00;98.00;;;;;;5082151;28;20041;-75
2024/01/11 03:40:39;;;;;;;;;;;-2.90;98.00;;;;;;5099813;28;20671;-76
2024/01/11 03:43:06;;;;;;;;;;;-3.00;98.00;;;;;;5099630;27;20578;-76
2024/01/11 03:45:33;;;;;;;;;;;-3.00;98.30;;;;;;5091240;28;20495;-77
2024/01/11 03:47:59;;;;;;;;;;;-3.00;98.00;;;;;;5097206;28;20404;-76
2024/01/11 03:50:27;;;;;;;;;;;-3.00;98.00;;;;;;5096630;28;19938;-76
2024/01/11 03:52:54;;;;;;;;;;;-3.00;98.00;;;;;;5097740;28;19924;-76
2024/01/11 03:55:20;;;;;;;;;;;-3.00;98.10;;;;;;5098746;28;19927;-76
2024/01/11 03:57:47;;;;;;;;;;;-3.00;98.00;;;;;;5098797;28;20113;-77
2024/01/11 04:00:14;;;;;;;;;;;-3.10;98.00;;;;;;5098195;28;19923;-76
2024/01/11 04:02:41;;;;;;;;;;;-3.10;98.10;;;;;;5097436;28;19930;-77
2024/01/11 04:05:08;;;;;;;;;;;-3.10;98.10;;;;;;5099344;28;20467;-76
2024/01/11 04:07:36;;;;;;;;;;;-3.10;98.10;;;;;;5097804;28;19931;-76
2024/01/11 04:10:02;;;;;;;;;;;-3.10;98.10;;;;;;5100386;28;19931;-77
2024/01/11 04:12:29;;;;;;;;;;;-3.10;97.80;;;;;;5079703;28;19931;-77
2024/01/11 04:14:55;;;;;;;;;;;-3.10;98.10;;;;;;5100357;27;19926;-76
2024/01/11 04:17:22;;;;;;;;;;;-3.10;98.10;;;;;;5100070;28;20324;-76
2024/01/11 04:19:49;;;;;;;;;;;-3.20;98.10;;;;;;5099071;28;19920;-76
2024/01/11 04:22:15;;;;;;;;;;;-3.10;98.10;;;;;;5098785;27;19927;-76
2024/01/11 04:24:45;;;;;;;;;;;-3.20;98.10;;;;;;5099312;28;20027;-76
2024/01/11 04:27:11;;;;;;;;;;;-3.20;98.10;;;;;;5101095;28;19930;-77
2024/01/11 04:29:38;;;;;;;;;;;-3.20;98.10;;;;;;5081430;28;19928;-76
2024/01/11 04:32:05;;;;;;;;;;;-3.20;97.90;;;;;;5099269;28;19927;-76
2024/01/11 04:34:32;;;;;;;;;;;-3.20;98.20;;;;;;5100436;28;19924;-76
2024/01/11 04:36:58;;;;;;;;;;;-3.20;98.10;;;;;;5067102;28;20002;-77
2024/01/11 04:39:25;;;;;;;;;;;-3.20;98.20;;;;;;5098240;28;19930;-76
2024/01/11 04:41:53;;;;;;;;;;;-3.20;98.20;;;;;;5101408;28;19988;-77
2024/01/11 04:44:19;;;;;;;;;;;-3.20;98.20;;;;;;5100893;28;20610;-76
2024/01/11 04:46:46;;;;;;;;;;;-3.20;98.30;;;;;;5097270;28;19927;-77
2024/01/11 04:49:13;;;;;;;;;;;-3.30;98.20;;;;;;5097839;28;20375;-76
2024/01/11 04:51:39;;;;;;;;;;;-3.30;98.30;;;;;;5097042;28;19931;-77
2024/01/11 04:54:06;;;;;;;;;;;-3.30;98.30;;;;;;5099251;28;19931;-76
2024/01/11 04:56:32;;;;;;;;;;;-3.30;98.30;;;;;;5097281;28;19931;-76
2024/01/11 04:59:01;;;;;;;;;;;-3.30;98.30;;;;;;5079988;28;20010;-77
2024/01/11 05:01:27;;;;;;;;;;;-3.30;98.30;;;;;;5098316;28;19924;-77
2024/01/11 05:03:54;;;;;;;;;;;-3.30;98.30;;;;;;5099649;28;19930;-77
2024/01/11 05:06:21;;;;;;;;;;;-3.30;98.30;;;;;;5093955;28;19927;-76
2024/01/11 05:08:48;;;;;;;;;;;-3.30;98.30;;;;;;5097768;28;19923;-76
2024/01/11 05:11:18;;;;;;;;;;;-3.40;98.30;;;;;;5098314;28;19930;-77
2024/01/11 05:13:47;;;;;;;;;;;-3.40;98.30;;;;;;5097509;28;19954;-76
2024/01/11 05:16:31;;;;;;;;;;;-3.40;98.30;;;;;;5094667;28;19923;-76
2024/01/11 05:18:58;;;;;;;;;;;-3.40;98.30;;;;;;5099515;28;19924;-76
2024/01/11 05:21:25;;;;;;;;;;;-3.40;98.30;;;;;;5099742;28;19951;-76
2024/01/11 05:23:52;;;;;;;;;;;-3.40;98.40;;;;;;5101046;28;20414;-77
2024/01/11 05:26:19;;;;;;;;;;;-3.40;98.40;;;;;;5102285;28;19967;-76
2024/01/11 05:28:46;;;;;;;;;;;-3.40;98.40;;;;;;5104072;28;19927;-76
2024/01/11 05:31:13;;;;;;;;;;;-3.40;98.40;;;;;;5102592;28;19928;-77
2024/01/11 05:33:41;;;;;;;;;;;-3.40;98.40;;;;;;5104177;28;19939;-76
2024/01/11 05:36:08;;;;;;;;;;;-3.40;98.40;;;;;;5101014;28;20397;-77
2024/01/11 05:38:35;;;;;;;;;;;-3.40;98.40;;;;;;5101505;28;20065;-75
2024/01/11 05:41:02;;;;;;;;;;;-3.40;98.40;;;;;;5100970;28;20411;-76
2024/01/11 05:43:28;;;;;;;;;;;-3.50;98.40;;;;;;5098911;28;19931;-77
2024/01/11 05:45:55;;;;;;;;;;;-3.50;98.40;;;;;;5098585;28;19930;-76
2024/01/11 05:48:22;;;;;;;;;;;-3.50;98.40;;;;;;5103080;28;19927;-76
2024/01/11 05:50:49;;;;;;;;;;;-3.50;98.50;;;;;;5104175;28;19920;-76
2024/01/11 05:53:17;;;;;;;;;;;-3.50;98.20;;;;;;5100877;28;20324;-77
2024/01/11 05:55:43;;;;;;;;;;;-3.50;98.80;;;;;;5087344;28;19930;-76
2024/01/11 05:58:10;;;;;;;;;;;-3.50;98.50;;;;;;5097276;28;20492;-76
2024/01/11 06:00:36;;;;;;;;;;;-3.50;98.50;;;;;;5101870;28;19935;-76
2024/01/11 06:03:04;;;;;;;;;;;-3.50;98.50;;;;;;5101123;28;19923;-76
2024/01/11 06:05:30;;;;;;;;;;;-3.60;98.50;;;;;;5098019;28;19931;-76
2024/01/11 06:07:58;;;;;;;;;;;-3.50;98.50;;;;;;5101244;28;19931;-76
2024/01/11 06:10:25;;;;;;;;;;;-3.60;98.50;;;;;;5103845;28;21411;-77
2024/01/11 06:12:52;;;;;;;;;;;-3.60;98.50;;;;;;5098986;28;19928;-76
2024/01/11 06:15:19;;;;;;;;;;;-3.60;98.50;;;;;;5097199;28;19924;-76
2024/01/11 06:17:48;;;;;;;;;;;-3.60;98.50;;;;;;5097755;27;19924;-76
2024/01/11 06:20:14;;;;;;;;;;;-3.60;98.50;;;;;;5100466;28;19924;-76
2024/01/11 06:22:41;;;;;;;;;;;-3.60;98.50;;;;;;5099509;28;20133;-77
2024/01/11 06:25:09;;;;;;;;;;;-3.60;98.50;;;;;;5095385;28;19953;-76
2024/01/11 06:27:36;;;;;;;;;;;-3.60;98.50;;;;;;5101726;28;19923;-76
2024/01/11 06:30:02;;;;;;;;;;;-3.60;98.60;;;;;;5103472;28;19930;-76
2024/01/11 06:32:29;;;;;;;;;;;-3.60;98.60;;;;;;5098711;28;19954;-76
2024/01/11 06:34:56;;;;;;;;;;;-3.60;98.60;;;;;;5097370;28;19920;-76
2024/01/11 06:37:23;;;;;;;;;;;-3.60;98.60;;;;;;5081657;28;19930;-76
2024/01/11 06:39:49;;;;;;;;;;;-3.60;98.60;;;;;;5102426;28;20748;-76
2024/01/11 06:42:17;;;;;;;;;;;-3.70;98.90;;;;;;5102063;28;19931;-77
2024/01/11 06:44:44;;;;;;;;;;;-3.70;98.60;;;;;;5103543;28;19928;-75
2024/01/11 06:47:11;;;;;;;;;;;-3.70;98.60;;;;;;5102381;28;19923;-77
2024/01/11 06:49:39;;;;;;;;;;;-3.70;98.60;;;;;;5102548;28;19923;-77
2024/01/11 06:52:05;;;;;;;;;;;-3.70;98.60;;;;;;5099143;28;19929;-77
2024/01/11 06:54:33;;;;;;;;;;;-3.70;98.70;;;;;;5103609;28;19945;-76
2024/01/11 06:57:00;;;;;;;;;;;-3.70;98.60;;;;;;5100399;28;19969;-77
2024/01/11 06:59:27;;;;;;;;;;;-3.70;98.60;;;;;;5084029;28;20387;-77
2024/01/11 07:01:54;;;;;;;;;;;-3.80;98.60;;;;;;5102685;27;19931;-77
2024/01/11 07:04:21;;;;;;;;;;;-3.70;98.60;;;;;;5101616;27;20392;-76
2024/01/11 07:06:50;;;;;;;;;;;-3.70;98.60;;;;;;5101145;28;19963;-76
2024/01/11 07:09:17;;;;;;;;;;;-3.80;98.60;;;;;;5099607;28;19923;-77
2024/01/11 07:11:44;;;;;;;;;;;-3.70;98.70;;;;;;5103239;28;19977;-77
2024/01/11 07:14:11;;;;;;;;;;;-3.80;98.70;;;;;;5097219;28;20018;-77
2024/01/11 07:16:39;;;;;;;;;;;-3.80;98.70;;;;;;5096797;28;20566;-77
2024/01/11 07:19:06;;;;;;;;;;;-3.80;98.60;;;;;;5098698;27;19924;-76
2024/01/11 07:21:32;;;;;;;;;;;-3.80;98.60;;;;;;5100180;27;19935;-75
2024/01/11 07:23:59;;;;;;;;;;;-3.80;98.90;;;;;;5095047;27;19935;-75
2024/01/11 07:26:26;;;;;;;;;;;-3.80;98.70;;;;;;5096596;28;19924;-76
2024/01/11 07:28:55;;;;;;;;;;;-3.80;98.70;;;;;;5100375;28;19949;-75
2024/01/11 07:31:22;;;;;;;;;;;-3.80;99.00;;;;;;5096809;27;20403;-75
2024/01/11 07:33:50;;;;;;;;;;;-3.80;98.70;;;;;;5095663;28;19923;-76
2024/01/11 07:36:16;;;;;;;;;;;-3.90;98.70;;;;;;5095816;28;19931;-76
2024/01/11 07:38:44;;;;;;;;;;;-3.80;98.80;;;;;;5096740;28;19923;-76
2024/01/11 07:41:10;;;;;;;;;;;-3.90;98.70;;;;;;5099695;28;19930;-75
2024/01/11 07:43:37;;;;;;;;;;;-3.80;98.70;;;;;;5099580;28;20334;-75
2024/01/11 07:46:05;;;;;;;;;;;-3.90;98.70;;;;;;5094401;28;19923;-75
2024/01/11 07:48:32;;;;;;;;;;;-3.90;98.70;;;;;;5077792;28;19935;-75
2024/01/11 07:51:00;;;;;;;;;;;-3.90;98.70;;;;;;5079715;28;20732;-75
2024/01/11 07:53:26;;;;;;;;;;;-3.90;98.70;;;;;;5094446;28;19923;-75
2024/01/11 07:55:53;;;;;;;;;;;-3.90;98.70;;;;;;5096334;28;20000;-75
2024/01/11 07:58:20;;;;;;;;;;;-3.90;98.70;;;;;;5097484;28;20716;-76
2024/01/11 08:00:47;;;;;;;;;;;-3.90;98.70;;;;;;5095371;28;19935;-76
2024/01/11 08:03:14;;;;;;;;;;;-3.90;98.80;;;;;;5096265;28;19924;-76
2024/01/11 08:05:41;;;;;;;;;;;-3.90;98.80;;;;;;5097733;28;20702;-76
2024/01/11 08:08:09;;;;;;;;;;;-3.90;98.80;;;;;;5092212;28;19928;-75
2024/01/11 08:10:35;;;;;;;;;;;-3.90;98.80;;;;;;5098939;28;19928;-74
2024/01/11 08:13:02;;;;;;;;;;;-3.90;98.80;;;;;;5096787;28;19927;-76
2024/01/11 08:15:28;;;;;;;;;;;-3.90;98.80;;;;;;5093014;28;19978;-75
2024/01/11 08:17:55;;;;;;;;;;;-3.90;98.80;;;;;;5094177;28;19924;-76
2024/01/11 08:20:22;;;;;;;;;;;-3.90;98.90;;;;;;5099839;28;19934;-74
2024/01/11 08:22:48;;;;;;;;;;;-4.00;98.80;;;;;;5094294;28;19935;-74
2024/01/11 08:25:17;;;;;;;;;;;-4.00;98.90;;;;;;5082397;28;19930;-74
2024/01/11 08:27:44;;;;;;;;;;;-4.00;98.90;;;;;;5094100;28;19931;-77
2024/01/11 08:30:12;;;;;;;;;;;-4.00;98.90;;;;;;5097042;28;19924;-75
2024/01/11 08:32:41;;;;;;;;;;;-4.00;98.90;;;;;;5095935;28;19923;-75
2024/01/11 08:35:09;;;;;;;;;;;-4.00;98.90;;;;;;5081158;28;20289;-75
2024/01/11 08:37:36;;;;;;;;;;;-4.00;98.90;;;;;;5095208;28;19928;-76
2024/01/11 08:40:04;;;;;;;;;;;-4.00;99.00;;;;;;5096862;28;19927;-75
2024/01/11 08:42:32;;;;;;;;;;;-4.00;98.90;;;;;;5077171;28;19924;-74
2024/01/11 08:45:03;;;;;;;;;;;-4.00;98.90;;;;;;5092958;28;19935;-73
2024/01/11 08:47:30;;;;;;;;;;;-4.00;99.00;;;;;;5091890;28;19924;-74
2024/01/11 08:49:57;;;;;;;;;;;-4.00;99.00;;;;;;5093475;28;19923;-74
2024/01/11 08:52:23;;;;;;;;;;;-4.00;99.00;;;;;;5097406;28;19945;-74
2024/01/11 08:54:50;;;;;;;;;;;-4.00;99.00;;;;;;5098313;28;19923;-75
2024/01/11 08:57:17;;;;;;;;;;;-4.00;99.00;;;;;;5100550;27;20086;-75
2024/01/11 08:59:45;;;;;;;;;;;-4.00;99.00;;;;;;5103345;28;20038;-75
2024/01/11 09:02:13;;;;;;;;;;;-4.00;99.10;;;;;;5100962;28;20716;-74
2024/01/11 09:04:39;;;;;;;;;;;-4.00;99.00;;;;;;5101538;27;19924;-76
2024/01/11 09:07:07;;;;;;;;;;;-4.00;99.10;;;;;;5081562;28;19924;-76
2024/01/11 09:09:33;;;;;;;;;;;-4.00;99.10;;;;;;5103725;28;19930;-75
2024/01/11 09:12:00;;;;;;;;;;;-4.00;99.10;;;;;;5100833;28;19927;-75
2024/01/11 09:14:27;;;;;;;;;;;-4.00;99.10;;;;;;5095110;28;20167;-75
2024/01/11 09:16:55;;;;;;;;;;;-4.00;99.10;;;;;;5074941;28;20040;-75
2024/01/11 09:19:22;;;;;;;;;;;-4.10;99.10;;;;;;5101443;28;19930;-75
2024/01/11 09:21:49;;;;;;;;;;;-4.00;99.10;;;;;;5099001;28;20385;-75
2024/01/11 09:24:16;;;;;;;;;;;-4.00;99.20;;;;;;5098247;28;19924;-76
2024/01/11 09:26:42;;;;;;;;;;;-4.00;99.20;;;;;;5101419;28;19931;-75
2024/01/11 09:29:09;;;;;;;;;;;-4.00;99.20;;;;;;5100821;27;20585;-76
2024/01/11 09:31:36;;;;;;;;;;;-4.00;99.20;;;;;;5099708;27;19930;-75
2024/01/11 09:34:04;;;;;;;;;;;-4.00;99.20;;;;;;5100420;27;20013;-75
2024/01/11 09:36:30;;;;;;;;;;;-4.00;99.20;;;;;;5098234;28;19977;-75
2024/01/11 09:38:57;;;;;;;;;;;-4.00;99.20;;;;;;5082180;28;19924;-75
2024/01/11 09:41:24;;;;;;;;;;;-4.00;99.20;;;;;;5099634;28;19924;-75
2024/01/11 09:43:52;;;;;;;;;;;-4.00;99.20;;;;;;5102394;28;19927;-76
2024/01/11 09:46:20;;;;;;;;;;;-4.00;99.20;;;;;;5099077;28;19924;-77
2024/01/11 09:48:47;;;;;;;;;;;-4.00;99.20;;;;;;5100086;27;20461;-77
2024/01/11 09:51:16;;;;;;;;;;;-4.00;99.30;;;;;;5099730;28;19923;-76
2024/01/11 09:53:43;;;;;;;;;;;-4.00;99.30;;;;;;5098400;28;20013;-77
2024/01/11 09:56:10;;;;;;;;;;;-4.00;99.30;;;;;;5098878;28;20001;-76
2024/01/11 09:58:37;;;;;;;;;;;-4.00;99.30;;;;;;5080851;28;20014;-76
2024/01/11 10:01:07;;;;;;;;;;;-4.00;99.30;;;;;;5100646;28;19923;-77
2024/01/11 10:03:34;;;;;;;;;;;-4.00;99.30;;;;;;5081577;28;20022;-77
2024/01/11 10:06:01;;;;;;;;;;;-4.00;99.40;;;;;;5101498;27;19924;-76
2024/01/11 10:08:30;;;;;;;;;;;-4.00;99.40;;;;;;5099961;28;19930;-77
2024/01/11 10:10:57;;;;;;;;;;;-4.00;99.50;;;;;;5100393;28;19935;-76
2024/01/11 10:13:27;;;;;;;;;;;-4.00;99.40;;;;;;5100198;28;20380;-75
2024/01/11 10:15:53;;;;;;;;;;;-4.00;99.50;;;;;;5099208;28;21106;-77
2024/01/11 10:18:23;;;;;;;;;;;-3.90;99.50;;;;;;5100704;27;20028;-76
2024/01/11 10:20:52;;;;;;;;;;;-4.00;99.40;;;;;;5099029;28;19923;-77
2024/01/11 10:23:19;;;;;;;;;;;-3.90;99.40;;;;;;5101288;27;20010;-77
2024/01/11 10:25:47;;;;;;;;;;;-3.90;99.40;;;;;;5101584;28;19924;-77
2024/01/11 10:28:14;;;;;;;;;;;-3.90;99.40;;;;;;5082095;28;19934;-77
2024/01/11 10:30:41;;;;;;;;;;;-3.90;99.40;;;;;;5096674;27;19927;-76
2024/01/11 10:33:08;;;;;;;;;;;-3.90;99.50;;;;;;5099550;28;19989;-77
2024/01/11 10:35:35;;;;;;;;;;;-3.90;99.40;;;;;;5097055;28;20392;-76
2024/01/11 10:38:12;;;;;;;;;;;-3.80;99.50;;;;;;5097860;28;20717;-77
2024/01/11 10:40:38;;;;;;;;;;;-3.90;99.40;;;;;;5099722;28;20412;-75
2024/01/11 10:43:11;;;;;;;;;;;-3.80;99.50;;;;;;5099881;28;19924;-76
2024/01/11 10:45:38;;;;;;;;;;;-3.80;99.50;;;;;;5097757;27;19931;-76
2024/01/11 10:48:07;;;;;;;;;;;-3.80;99.50;;;;;;5097049;27;20060;-76
2024/01/11 10:50:35;;;;;;;;;;;-3.70;99.50;;;;;;5082532;27;20778;-77
2024/01/11 10:53:10;;;;;;;;;;;-3.70;99.50;;;;;;5098845;28;19930;-76
2024/01/11 10:55:37;;;;;;;;;;;-3.70;99.40;;;;;;5099219;28;19923;-77
2024/01/11 10:58:04;;;;;;;;;;;-3.60;99.40;;;;;;5099256;28;19935;-77
2024/01/11 11:00:33;;;;;;;;;;;-3.60;99.30;;;;;;5098320;28;19923;-76
2024/01/11 11:03:00;;;;;;;;;;;-3.60;99.30;;;;;;5097933;28;19946;-76
2024/01/11 11:05:28;;;;;;;;;;;-3.50;99.20;;;;;;5095558;28;19924;-76
2024/01/11 11:07:55;;;;;;;;;;;-3.40;99.10;;;;;;5100874;28;19923;-76
2024/01/11 11:10:22;;;;;;;;;;;-3.40;99.00;;;;;;5097303;28;19923;-75
2024/01/11 11:12:50;;;;;;;;;;;-3.40;99.00;;;;;;5096690;28;20385;-77
2024/01/11 11:15:16;;;;;;;;;;;-3.30;98.90;;;;;;5098244;28;20483;-75
2024/01/11 11:17:45;;;;;;;;;;;-3.20;98.90;;;;;;5099744;28;19932;-77
2024/01/11 11:20:13;;;;;;;;;;;-3.20;98.80;;;;;;5099405;28;19923;-76
2024/01/11 11:22:41;;;;;;;;;;;-3.20;98.80;;;;;;5095733;28;19981;-76
2024/01/11 11:25:09;;;;;;;;;;;-3.20;98.70;;;;;;5099370;28;19953;-76
2024/01/11 11:27:35;;;;;;;;;;;-3.10;98.70;;;;;;5094995;28;19938;-76
2024/01/11 11:30:02;;;;;;;;;;;-3.10;98.70;;;;;;5097259;27;19931;-76
2024/01/11 11:32:39;;;;;;;;;;;-3.10;98.70;;;;;;5095580;28;19927;-76
2024/01/11 11:35:08;;;;;;;;;;;-3.10;98.70;;;;;;5084196;28;19937;-75
2024/01/11 11:37:37;;;;;;;;;;;-3.10;98.70;;;;;;5098226;28;19935;-77
2024/01/11 11:40:04;;;;;;;;;;;-3.10;98.70;;;;;;5067234;28;20027;-77
2024/01/11 11:42:31;;;;;;;;;;;-3.10;98.70;;;;;;5103297;28;19958;-75
2024/01/11 11:44:58;;;;;;;;;;;-3.10;98.70;;;;;;5096179;27;19957;-77
2024/01/11 11:47:25;;;;;;;;;;;-3.10;98.70;;;;;;5098164;28;19928;-77
2024/01/11 11:49:59;;;;;;;;;;;-3.10;98.80;;;;;;5099522;28;19969;-76
2024/01/11 11:52:28;;;;;;;;;;;-3.10;98.80;;;;;;5097783;28;19989;-77
2024/01/11 11:54:55;;;;;;;;;;;-3.00;98.80;;;;;;5098667;28;19961;-77
2024/01/11 11:57:22;;;;;;;;;;;-3.00;98.80;;;;;;5095306;28;19958;-77
2024/01/11 11:59:49;;;;;;;;;;;-3.00;99.00;;;;;;5099920;27;19957;-77
2024/01/11 12:02:17;;;;;;;;;;;-3.00;98.80;;;;;;5098471;27;19935;-77
2024/01/11 12:04:47;;;;;;;;;;;-3.00;98.80;;;;;;5084175;28;19971;-77
2024/01/11 12:07:13;;;;;;;;;;;-3.00;98.80;;;;;;5093368;27;20407;-77
2024/01/11 12:09:41;;;;;;;;;;;-3.00;98.80;;;;;;5099836;28;19923;-77
2024/01/11 12:12:08;;;;;;;;;;;-2.90;98.90;;;;;;5097771;28;20026;-77
2024/01/11 12:14:35;;;;;;;;;;;-2.90;98.90;;;;;;5099674;28;19935;-77
2024/01/11 12:17:02;;;;;;;;;;;-2.90;98.90;;;;;;5099664;27;19924;-77
2024/01/11 12:19:29;;;;;;;;;;;-2.90;98.90;;;;;;5097038;28;19924;-77
2024/01/11 12:21:55;;;;;;;;;;;-2.80;98.90;;;;;;5097105;28;19931;-77
2024/01/11 12:24:23;;;;;;;;;;;-2.80;98.80;;;;;;5099308;28;19935;-76
2024/01/11 12:26:51;;;;;;;;;;;-2.70;98.80;;;;;;5098079;28;20646;-77
2024/01/11 12:29:18;;;;;;;;;;;-2.70;98.70;;;;;;5097050;28;19980;-77
2024/01/11 12:31:44;;;;;;;;;;;-2.60;98.70;;;;;;5098500;28;20403;-77
2024/01/11 12:34:12;;;;;;;;;;;-2.60;98.60;;;;;;5078370;28;20507;-77
2024/01/11 12:36:39;;;;;;;;;;;-2.50;98.60;;;;;;5091446;28;19954;-75
2024/01/11 12:39:06;;;;;;;;;;;-2.50;98.50;;;;;;5097379;28;19928;-76
2024/01/11 12:41:33;;;;;;;;;;;-2.40;98.40;;;;;;5095448;28;20088;-77
2024/01/11 12:44:01;;;;;;;;;;;-2.30;98.30;;;;;;5078803;28;19923;-76
2024/01/11 12:46:28;;;;;;;;;;;-2.30;98.20;;;;;;5094471;28;20707;-75
2024/01/11 12:48:54;;;;;;;;;;;-2.20;98.10;;;;;;5077488;28;19930;-77
2024/01/11 12:51:21;;;;;;;;;;;-2.10;98.10;;;;;;5095756;28;19939;-76
2024/01/11 12:53:48;;;;;;;;;;;-2.10;97.90;;;;;;5095361;28;20019;-77
2024/01/11 12:56:15;;;;;;;;;;;-2.10;97.80;;;;;;5095528;28;19930;-77
2024/01/11 12:58:42;;;;;;;;;;;-2.00;97.80;;;;;;5094271;28;19924;-77
2024/01/11 13:01:11;;;;;;;;;;;-2.00;97.80;;;;;;5079834;28;20038;-76
2024/01/11 13:03:39;;;;;;;;;;;-2.00;97.70;;;;;;5094524;28;19924;-77
2024/01/11 13:06:06;;;;;;;;;;;-1.90;97.80;;;;;;5095649;28;20348;-76
2024/01/11 13:08:36;;;;;;;;;;;-1.90;97.80;;;;;;5079623;28;20773;-77
2024/01/11 13:11:06;;;;;;;;;;;-1.90;97.80;;;;;;5099298;28;20049;-77
2024/01/11 13:13:33;;;;;;;;;;;-1.90;97.80;;;;;;5097214;28;19919;-77
2024/01/11 13:15:59;;;;;;;;;;;-1.80;97.80;;;;;;5096265;28;19930;-76
2024/01/11 13:18:31;;;;;;;;;;;-1.80;97.80;;;;;;5096289;28;20718;-77
2024/01/11 13:20:57;;;;;;;;;;;-1.80;97.70;;;;;;5096306;28;19927;-77
2024/01/11 13:23:24;;;;;;;;;;;-1.70;97.70;;;;;;5095099;28;19931;-75
2024/01/11 13:25:51;;;;;;;;;;;-1.80;97.70;;;;;;5096603;28;19927;-75
2024/01/11 13:28:18;;;;;;;;;;;-1.70;97.70;;;;;;5093790;28;19928;-77
2024/01/11 13:30:45;;;;;;;;;;;-1.70;97.70;;;;;;5092034;28;20570;-77
2024/01/11 13:33:16;;;;;;;;;;;-1.70;97.70;;;;;;5092866;28;20034;-77
2024/01/11 13:35:44;;;;;;;;;;;-1.70;97.70;;;;;;5096930;28;20675;-75
2024/01/11 13:38:11;;;;;;;;;;;-1.70;97.70;;;;;;5095278;28;19924;-77
2024/01/11 13:40:39;;;;;;;;;;;-1.70;97.80;;;;;;5061016;28;19930;-77
2024/01/11 13:43:06;;;;;;;;;;;-1.60;97.80;;;;;;5098187;28;19923;-77
2024/01/11 13:45:33;;;;;;;;;;;-1.60;97.80;;;;;;5096994;28;20384;-77
2024/01/11 13:48:00;;;;;;;;;;;-1.50;97.90;;;;;;5100387;28;19946;-76
2024/01/11 13:50:27;;;;;;;;;;;-1.60;97.80;;;;;;5101278;27;19928;-76
2024/01/11 13:52:55;;;;;;;;;;;-1.50;97.90;;;;;;5099288;28;19959;-76
2024/01/11 13:55:22;;;;;;;;;;;-1.50;97.80;;;;;;5095627;28;19927;-76
2024/01/11 13:57:49;;;;;;;;;;;-1.40;97.70;;;;;;5096784;28;19923;-74
2024/01/11 14:00:18;;;;;;;;;;;-1.30;97.60;;;;;;5098726;28;19924;-76
2024/01/11 14:02:46;;;;;;;;;;;-1.30;97.60;;;;;;5094000;28;20400;-76
2024/01/11 14:05:14;;;;;;;;;;;-1.20;97.50;;;;;;5096641;27;19924;-76
2024/01/11 14:07:42;;;;;;;;;;;-1.20;97.40;;;;;;5098202;28;19924;-77
2024/01/11 14:10:12;;;;;;;;;;;-1.10;97.40;;;;;;5099107;28;19928;-77
2024/01/11 14:12:39;;;;;;;;;;;-1.00;97.30;;;;;;5098508;28;20042;-77
2024/01/11 14:15:07;;;;;;;;;;;-1.00;97.20;;;;;;5081263;28;20339;-76
2024/01/11 14:17:34;;;;;;;;;;;-1.00;97.20;;;;;;5097122;27;20608;-77